sensor_id;sensor_type;location;lat;lon;timestamp;temperature;humidity
55211;DHT22;41082;52.822;6.666;2023-08-21T00:02:18;17.00;99.90
55211;DHT22;41082;52.822;6.666;2023-08-21T00:04:43;17.00;99.90
55211;DHT22;41082;52.822;6.666;2023-08-21T00:07:09;16.90;99.90
55211;DHT22;41082;52.822;6.666;2023-08-21T00:09:36;16.90;99.90
55211;DHT22;41082;52.822;6.666;2023-08-21T00:12:01;16.90;99.90
55211;DHT22;41082;52.822;6.666;2023-08-21T00:14:27;16.90;99.90
55211;DHT22;41082;52.822;6.666;2023-08-21T00:16:52;16.90;99.90
55211;DHT22;41082;52.822;6.666;2023-08-21T00:19:18;16.80;99.90
55211;DHT22;41082;52.822;6.666;2023-08-21T00:21:43;16.80;99.90
55211;DHT22;41082;52.822;6.666;2023-08-21T00:24:09;16.70;99.90
55211;DHT22;41082;52.822;6.666;2023-08-21T00:26:34;16.70;99.90
55211;DHT22;41082;52.822;6.666;2023-08-21T00:29:00;16.70;99.90
55211;DHT22;41082;52.822;6.666;2023-08-21T00:31:26;16.70;99.90
55211;DHT22;41082;52.822;6.666;2023-08-21T00:33:51;16.60;99.90
55211;DHT22;41082;52.822;6.666;2023-08-21T00:36:17;16.60;99.90
55211;DHT22;41082;52.822;6.666;2023-08-21T00:38:42;16.60;99.90
55211;DHT22;41082;52.822;6.666;2023-08-21T00:41:08;16.60;99.90
55211;DHT22;41082;52.822;6.666;2023-08-21T00:43:37;16.50;99.90
55211;DHT22;41082;52.822;6.666;2023-08-21T00:46:02;16.50;99.90
55211;DHT22;41082;52.822;6.666;2023-08-21T00:48:28;16.50;99.90
55211;DHT22;41082;52.822;6.666;2023-08-21T00:50:54;16.50;99.90
55211;DHT22;41082;52.822;6.666;2023-08-21T00:53:21;16.40;99.90
55211;DHT22;41082;52.822;6.666;2023-08-21T00:55:47;16.40;99.90
55211;DHT22;41082;52.822;6.666;2023-08-21T00:58:13;16.40;99.90
55211;DHT22;41082;52.822;6.666;2023-08-21T01:00:40;16.40;99.90
55211;DHT22;41082;52.822;6.666;2023-08-21T01:03:06;16.40;99.90
55211;DHT22;41082;52.822;6.666;2023-08-21T01:05:32;16.40;99.90
55211;DHT22;41082;52.822;6.666;2023-08-21T01:08:10;16.30;99.90
55211;DHT22;41082;52.822;6.666;2023-08-21T01:10:53;16.30;99.90
55211;DHT22;41082;52.822;6.666;2023-08-21T01:15:56;16.30;99.90
55211;DHT22;41082;52.822;6.666;2023-08-21T01:18:22;16.30;99.90
55211;DHT22;41082;52.822;6.666;2023-08-21T01:20:49;16.20;99.90
55211;DHT22;41082;52.822;6.666;2023-08-21T01:25:58;16.10;99.90
55211;DHT22;41082;52.822;6.666;2023-08-21T01:28:24;16.10;99.90
55211;DHT22;41082;52.822;6.666;2023-08-21T01:30:52;16.00;99.90
55211;DHT22;41082;52.822;6.666;2023-08-21T01:33:21;16.00;99.90
55211;DHT22;41082;52.822;6.666;2023-08-21T01:35:48;16.00;99.90
55211;DHT22;41082;52.822;6.666;2023-08-21T01:38:14;16.00;99.90
55211;DHT22;41082;52.822;6.666;2023-08-21T01:40:40;16.00;99.90
55211;DHT22;41082;52.822;6.666;2023-08-21T01:43:06;16.00;99.90
55211;DHT22;41082;52.822;6.666;2023-08-21T01:45:31;15.90;99.90
55211;DHT22;41082;52.822;6.666;2023-08-21T01:47:57;15.90;99.90
55211;DHT22;41082;52.822;6.666;2023-08-21T01:50:22;15.90;99.90
55211;DHT22;41082;52.822;6.666;2023-08-21T01:52:48;15.90;99.90
55211;DHT22;41082;52.822;6.666;2023-08-21T01:55:13;15.90;99.90
55211;DHT22;41082;52.822;6.666;2023-08-21T01:57:39;15.80;99.90
55211;DHT22;41082;52.822;6.666;2023-08-21T02:00:05;15.80;99.90
55211;DHT22;41082;52.822;6.666;2023-08-21T02:02:32;15.80;99.90
55211;DHT22;41082;52.822;6.666;2023-08-21T02:04:57;15.80;99.90
55211;DHT22;41082;52.822;6.666;2023-08-21T02:07:23;15.80;99.90
55211;DHT22;41082;52.822;6.666;2023-08-21T02:09:48;15.70;99.90
55211;DHT22;41082;52.822;6.666;2023-08-21T02:12:14;15.70;99.90
55211;DHT22;41082;52.822;6.666;2023-08-21T02:14:39;15.70;99.90
55211;DHT22;41082;52.822;6.666;2023-08-21T02:17:05;15.70;99.90
55211;DHT22;41082;52.822;6.666;2023-08-21T02:19:31;15.60;99.90
55211;DHT22;41082;52.822;6.666;2023-08-21T02:21:56;15.60;99.90
55211;DHT22;41082;52.822;6.666;2023-08-21T02:24:22;15.60;99.90
55211;DHT22;41082;52.822;6.666;2023-08-21T02:26:47;15.60;99.90
55211;DHT22;41082;52.822;6.666;2023-08-21T02:29:13;15.50;99.90
55211;DHT22;41082;52.822;6.666;2023-08-21T02:31:39;15.50;99.90
55211;DHT22;41082;52.822;6.666;2023-08-21T02:34:04;15.50;99.90
55211;DHT22;41082;52.822;6.666;2023-08-21T02:36:30;15.50;99.90
55211;DHT22;41082;52.822;6.666;2023-08-21T02:38:56;15.50;99.90
55211;DHT22;41082;52.822;6.666;2023-08-21T02:41:21;15.50;99.90
55211;DHT22;41082;52.822;6.666;2023-08-21T02:43:47;15.40;99.90
55211;DHT22;41082;52.822;6.666;2023-08-21T02:46:12;15.40;99.90
55211;DHT22;41082;52.822;6.666;2023-08-21T02:48:38;15.40;99.90
55211;DHT22;41082;52.822;6.666;2023-08-21T02:51:03;15.40;99.90
55211;DHT22;41082;52.822;6.666;2023-08-21T02:53:29;15.40;99.90
55211;DHT22;41082;52.822;6.666;2023-08-21T02:55:55;15.40;99.90
55211;DHT22;41082;52.822;6.666;2023-08-21T02:58:20;15.30;99.90
55211;DHT22;41082;52.822;6.666;2023-08-21T03:00:46;15.30;99.90
55211;DHT22;41082;52.822;6.666;2023-08-21T03:03:11;15.30;99.90
55211;DHT22;41082;52.822;6.666;2023-08-21T03:05:37;15.30;99.90
55211;DHT22;41082;52.822;6.666;2023-08-21T03:08:03;15.20;99.90
55211;DHT22;41082;52.822;6.666;2023-08-21T03:10:28;15.20;99.90
55211;DHT22;41082;52.822;6.666;2023-08-21T03:12:58;15.20;99.90
55211;DHT22;41082;52.822;6.666;2023-08-21T03:15:24;15.10;99.90
55211;DHT22;41082;52.822;6.666;2023-08-21T03:17:50;15.10;99.90
55211;DHT22;41082;52.822;6.666;2023-08-21T03:20:16;15.10;99.90
55211;DHT22;41082;52.822;6.666;2023-08-21T03:22:43;15.10;99.90
55211;DHT22;41082;52.822;6.666;2023-08-21T03:25:08;15.10;99.90
55211;DHT22;41082;52.822;6.666;2023-08-21T03:27:34;15.00;99.90
55211;DHT22;41082;52.822;6.666;2023-08-21T03:30:06;15.00;99.90
55211;DHT22;41082;52.822;6.666;2023-08-21T03:32:32;15.00;99.90
55211;DHT22;41082;52.822;6.666;2023-08-21T03:34:58;15.00;99.90
55211;DHT22;41082;52.822;6.666;2023-08-21T03:37:23;15.00;99.90
55211;DHT22;41082;52.822;6.666;2023-08-21T03:39:49;15.00;99.90
55211;DHT22;41082;52.822;6.666;2023-08-21T03:42:15;15.00;99.90
55211;DHT22;41082;52.822;6.666;2023-08-21T03:44:40;15.00;99.90
55211;DHT22;41082;52.822;6.666;2023-08-21T03:47:06;14.90;99.90
55211;DHT22;41082;52.822;6.666;2023-08-21T03:49:31;14.90;99.90
55211;DHT22;41082;52.822;6.666;2023-08-21T03:51:57;14.90;99.90
55211;DHT22;41082;52.822;6.666;2023-08-21T03:54:22;14.90;99.90
55211;DHT22;41082;52.822;6.666;2023-08-21T03:56:48;14.80;99.90
55211;DHT22;41082;52.822;6.666;2023-08-21T03:59:13;14.80;99.90
55211;DHT22;41082;52.822;6.666;2023-08-21T04:01:39;14.80;99.90
55211;DHT22;41082;52.822;6.666;2023-08-21T04:04:05;14.80;99.90
55211;DHT22;41082;52.822;6.666;2023-08-21T04:06:30;14.80;99.90
55211;DHT22;41082;52.822;6.666;2023-08-21T04:08:56;14.80;99.90
55211;DHT22;41082;52.822;6.666;2023-08-21T04:11:21;14.70;99.90
55211;DHT22;41082;52.822;6.666;2023-08-21T04:13:47;14.70;99.90
55211;DHT22;41082;52.822;6.666;2023-08-21T04:16:12;14.70;99.90
55211;DHT22;41082;52.822;6.666;2023-08-21T04:18:38;14.70;99.90
55211;DHT22;41082;52.822;6.666;2023-08-21T04:21:04;14.70;99.90
55211;DHT22;41082;52.822;6.666;2023-08-21T04:23:30;14.70;99.90
55211;DHT22;41082;52.822;6.666;2023-08-21T04:26:02;14.60;99.90
55211;DHT22;41082;52.822;6.666;2023-08-21T04:28:30;14.70;99.90
55211;DHT22;41082;52.822;6.666;2023-08-21T04:30:56;14.60;99.90
55211;DHT22;41082;52.822;6.666;2023-08-21T04:33:24;14.60;99.90
55211;DHT22;41082;52.822;6.666;2023-08-21T04:35:50;14.60;99.90
55211;DHT22;41082;52.822;6.666;2023-08-21T04:38:15;14.60;99.90
55211;DHT22;41082;52.822;6.666;2023-08-21T04:40:41;14.60;99.90
55211;DHT22;41082;52.822;6.666;2023-08-21T04:43:06;14.60;99.90
55211;DHT22;41082;52.822;6.666;2023-08-21T04:45:32;14.60;99.90
55211;DHT22;41082;52.822;6.666;2023-08-21T04:47:58;14.60;99.90
55211;DHT22;41082;52.822;6.666;2023-08-21T04:50:24;14.60;99.90
55211;DHT22;41082;52.822;6.666;2023-08-21T04:52:49;14.60;99.90
55211;DHT22;41082;52.822;6.666;2023-08-21T04:55:15;14.60;99.90
55211;DHT22;41082;52.822;6.666;2023-08-21T04:57:41;14.60;99.90
55211;DHT22;41082;52.822;6.666;2023-08-21T05:00:07;14.60;99.90
55211;DHT22;41082;52.822;6.666;2023-08-21T05:02:34;14.60;99.90
55211;DHT22;41082;52.822;6.666;2023-08-21T05:05:00;14.60;99.90
55211;DHT22;41082;52.822;6.666;2023-08-21T05:07:26;14.60;99.90
55211;DHT22;41082;52.822;6.666;2023-08-21T05:09:52;14.60;99.90
55211;DHT22;41082;52.822;6.666;2023-08-21T05:12:18;14.60;99.90
55211;DHT22;41082;52.822;6.666;2023-08-21T05:14:43;14.60;99.90
55211;DHT22;41082;52.822;6.666;2023-08-21T05:17:09;14.60;99.90
55211;DHT22;41082;52.822;6.666;2023-08-21T05:19:35;14.60;99.90
55211;DHT22;41082;52.822;6.666;2023-08-21T05:22:00;14.60;99.90
55211;DHT22;41082;52.822;6.666;2023-08-21T05:24:26;14.60;99.90
55211;DHT22;41082;52.822;6.666;2023-08-21T05:26:51;14.60;99.90
55211;DHT22;41082;52.822;6.666;2023-08-21T05:29:17;14.70;99.90
55211;DHT22;41082;52.822;6.666;2023-08-21T05:31:43;14.70;99.90
55211;DHT22;41082;52.822;6.666;2023-08-21T05:34:08;14.70;99.90
55211;DHT22;41082;52.822;6.666;2023-08-21T05:36:34;14.70;99.90
55211;DHT22;41082;52.822;6.666;2023-08-21T05:39:02;14.80;99.90
55211;DHT22;41082;52.822;6.666;2023-08-21T05:41:32;14.80;99.90
55211;DHT22;41082;52.822;6.666;2023-08-21T05:43:58;14.80;99.90
55211;DHT22;41082;52.822;6.666;2023-08-21T05:46:23;14.80;99.90
55211;DHT22;41082;52.822;6.666;2023-08-21T05:48:49;14.90;99.90
55211;DHT22;41082;52.822;6.666;2023-08-21T05:51:14;14.90;99.90
55211;DHT22;41082;52.822;6.666;2023-08-21T05:53:40;15.00;99.90
55211;DHT22;41082;52.822;6.666;2023-08-21T05:56:06;15.10;99.90
55211;DHT22;41082;52.822;6.666;2023-08-21T05:58:31;15.10;99.90
55211;DHT22;41082;52.822;6.666;2023-08-21T06:00:58;15.20;99.90
55211;DHT22;41082;52.822;6.666;2023-08-21T06:03:24;15.30;99.90
55211;DHT22;41082;52.822;6.666;2023-08-21T06:05:49;15.40;99.90
55211;DHT22;41082;52.822;6.666;2023-08-21T06:08:15;15.50;99.90
55211;DHT22;41082;52.822;6.666;2023-08-21T06:10:41;15.60;99.90
55211;DHT22;41082;52.822;6.666;2023-08-21T06:13:06;15.70;99.90
55211;DHT22;41082;52.822;6.666;2023-08-21T06:15:32;15.90;99.90
55211;DHT22;41082;52.822;6.666;2023-08-21T06:17:58;15.90;99.90
55211;DHT22;41082;52.822;6.666;2023-08-21T06:20:24;16.10;99.90
55211;DHT22;41082;52.822;6.666;2023-08-21T06:22:50;16.20;99.90
55211;DHT22;41082;52.822;6.666;2023-08-21T06:25:15;16.30;99.90
55211;DHT22;41082;52.822;6.666;2023-08-21T06:27:41;16.50;99.90
55211;DHT22;41082;52.822;6.666;2023-08-21T06:30:07;16.60;99.90
55211;DHT22;41082;52.822;6.666;2023-08-21T06:32:33;16.70;99.90
55211;DHT22;41082;52.822;6.666;2023-08-21T06:34:59;16.80;99.90
55211;DHT22;41082;52.822;6.666;2023-08-21T06:37:24;16.90;99.90
55211;DHT22;41082;52.822;6.666;2023-08-21T06:39:50;17.00;99.90
55211;DHT22;41082;52.822;6.666;2023-08-21T06:42:16;17.10;99.90
55211;DHT22;41082;52.822;6.666;2023-08-21T06:44:41;17.20;99.90
55211;DHT22;41082;52.822;6.666;2023-08-21T06:47:07;17.30;99.90
55211;DHT22;41082;52.822;6.666;2023-08-21T06:49:32;17.40;99.90
55211;DHT22;41082;52.822;6.666;2023-08-21T06:51:58;17.50;99.90
55211;DHT22;41082;52.822;6.666;2023-08-21T06:54:24;17.60;99.90
55211;DHT22;41082;52.822;6.666;2023-08-21T06:56:50;17.60;99.90
55211;DHT22;41082;52.822;6.666;2023-08-21T06:59:15;17.80;99.90
55211;DHT22;41082;52.822;6.666;2023-08-21T07:01:41;17.80;99.90
55211;DHT22;41082;52.822;6.666;2023-08-21T07:04:06;17.90;99.90
55211;DHT22;41082;52.822;6.666;2023-08-21T07:06:32;18.00;99.90
55211;DHT22;41082;52.822;6.666;2023-08-21T07:08:58;18.10;99.90
55211;DHT22;41082;52.822;6.666;2023-08-21T07:11:23;18.20;99.90
55211;DHT22;41082;52.822;6.666;2023-08-21T07:13:49;18.30;99.90
55211;DHT22;41082;52.822;6.666;2023-08-21T07:16:15;18.40;99.90
55211;DHT22;41082;52.822;6.666;2023-08-21T07:18:40;18.40;99.90
55211;DHT22;41082;52.822;6.666;2023-08-21T07:21:06;18.50;99.90
55211;DHT22;41082;52.822;6.666;2023-08-21T07:23:32;18.60;99.90
55211;DHT22;41082;52.822;6.666;2023-08-21T07:25:59;18.60;99.90
55211;DHT22;41082;52.822;6.666;2023-08-21T07:28:25;18.70;99.90
55211;DHT22;41082;52.822;6.666;2023-08-21T07:31:00;18.80;99.90
55211;DHT22;41082;52.822;6.666;2023-08-21T07:33:26;18.90;99.90
55211;DHT22;41082;52.822;6.666;2023-08-21T07:36:03;18.90;99.90
55211;DHT22;41082;52.822;6.666;2023-08-21T07:38:29;19.00;99.90
55211;DHT22;41082;52.822;6.666;2023-08-21T07:41:21;19.00;99.90
55211;DHT22;41082;52.822;6.666;2023-08-21T07:43:46;19.10;99.90
55211;DHT22;41082;52.822;6.666;2023-08-21T07:46:13;19.20;99.90
55211;DHT22;41082;52.822;6.666;2023-08-21T07:48:42;19.30;99.90
55211;DHT22;41082;52.822;6.666;2023-08-21T07:51:08;19.30;99.90
55211;DHT22;41082;52.822;6.666;2023-08-21T07:53:34;19.40;99.90
55211;DHT22;41082;52.822;6.666;2023-08-21T07:56:00;19.50;99.90
55211;DHT22;41082;52.822;6.666;2023-08-21T07:58:26;19.50;99.90
55211;DHT22;41082;52.822;6.666;2023-08-21T08:00:52;19.50;99.90
55211;DHT22;41082;52.822;6.666;2023-08-21T08:03:17;19.60;99.90
55211;DHT22;41082;52.822;6.666;2023-08-21T08:05:43;19.70;99.90
55211;DHT22;41082;52.822;6.666;2023-08-21T08:08:09;19.70;99.90
55211;DHT22;41082;52.822;6.666;2023-08-21T08:10:39;19.80;99.90
55211;DHT22;41082;52.822;6.666;2023-08-21T08:13:05;19.90;99.90
55211;DHT22;41082;52.822;6.666;2023-08-21T08:15:31;19.90;99.90
55211;DHT22;41082;52.822;6.666;2023-08-21T08:17:57;20.00;99.90
55211;DHT22;41082;52.822;6.666;2023-08-21T08:20:23;20.10;99.90
55211;DHT22;41082;52.822;6.666;2023-08-21T08:22:48;20.20;99.90
55211;DHT22;41082;52.822;6.666;2023-08-21T08:25:14;20.20;99.90
55211;DHT22;41082;52.822;6.666;2023-08-21T08:27:40;20.30;99.90
55211;DHT22;41082;52.822;6.666;2023-08-21T08:30:06;20.40;99.90
55211;DHT22;41082;52.822;6.666;2023-08-21T08:32:32;20.50;99.90
55211;DHT22;41082;52.822;6.666;2023-08-21T08:34:57;20.60;99.90
55211;DHT22;41082;52.822;6.666;2023-08-21T08:37:23;20.70;99.90
55211;DHT22;41082;52.822;6.666;2023-08-21T08:39:49;20.90;99.90
55211;DHT22;41082;52.822;6.666;2023-08-21T08:42:15;21.00;99.90
55211;DHT22;41082;52.822;6.666;2023-08-21T08:44:42;21.10;99.90
55211;DHT22;41082;52.822;6.666;2023-08-21T08:47:08;21.30;99.90
55211;DHT22;41082;52.822;6.666;2023-08-21T08:49:35;21.40;99.90
55211;DHT22;41082;52.822;6.666;2023-08-21T08:52:01;21.60;99.90
55211;DHT22;41082;52.822;6.666;2023-08-21T08:54:27;21.70;99.90
55211;DHT22;41082;52.822;6.666;2023-08-21T08:56:53;21.90;99.90
55211;DHT22;41082;52.822;6.666;2023-08-21T08:59:19;22.10;99.90
55211;DHT22;41082;52.822;6.666;2023-08-21T09:01:45;22.30;99.90
55211;DHT22;41082;52.822;6.666;2023-08-21T09:04:11;22.40;99.90
55211;DHT22;41082;52.822;6.666;2023-08-21T09:06:37;22.60;99.90
55211;DHT22;41082;52.822;6.666;2023-08-21T09:09:03;22.80;99.90
55211;DHT22;41082;52.822;6.666;2023-08-21T09:11:30;23.00;99.90
55211;DHT22;41082;52.822;6.666;2023-08-21T09:13:55;23.10;99.90
55211;DHT22;41082;52.822;6.666;2023-08-21T09:16:23;23.20;99.90
55211;DHT22;41082;52.822;6.666;2023-08-21T09:18:52;23.40;99.90
55211;DHT22;41082;52.822;6.666;2023-08-21T09:21:20;23.50;99.90
55211;DHT22;41082;52.822;6.666;2023-08-21T09:23:46;23.70;99.90
55211;DHT22;41082;52.822;6.666;2023-08-21T09:26:21;23.80;99.90
55211;DHT22;41082;52.822;6.666;2023-08-21T09:28:48;24.00;99.90
55211;DHT22;41082;52.822;6.666;2023-08-21T09:31:14;24.10;99.90
55211;DHT22;41082;52.822;6.666;2023-08-21T09:33:40;24.20;99.90
55211;DHT22;41082;52.822;6.666;2023-08-21T09:36:06;24.40;99.90
55211;DHT22;41082;52.822;6.666;2023-08-21T09:38:33;24.50;99.90
55211;DHT22;41082;52.822;6.666;2023-08-21T09:40:59;24.60;99.90
55211;DHT22;41082;52.822;6.666;2023-08-21T09:43:25;24.70;99.90
55211;DHT22;41082;52.822;6.666;2023-08-21T09:45:52;24.80;99.90
55211;DHT22;41082;52.822;6.666;2023-08-21T09:48:21;24.90;99.90
55211;DHT22;41082;52.822;6.666;2023-08-21T09:50:47;25.00;99.90
55211;DHT22;41082;52.822;6.666;2023-08-21T09:53:12;25.10;99.90
55211;DHT22;41082;52.822;6.666;2023-08-21T09:55:38;25.20;99.50
55211;DHT22;41082;52.822;6.666;2023-08-21T09:58:06;25.30;99.50
55211;DHT22;41082;52.822;6.666;2023-08-21T10:00:37;25.40;99.20
55211;DHT22;41082;52.822;6.666;2023-08-21T10:03:12;25.50;98.80
55211;DHT22;41082;52.822;6.666;2023-08-21T10:05:39;25.60;97.80
55211;DHT22;41082;52.822;6.666;2023-08-21T10:08:06;25.70;98.30
55211;DHT22;41082;52.822;6.666;2023-08-21T10:10:37;25.80;98.70
55211;DHT22;41082;52.822;6.666;2023-08-21T10:13:04;25.90;98.60
55211;DHT22;41082;52.822;6.666;2023-08-21T10:15:33;26.00;98.20
55211;DHT22;41082;52.822;6.666;2023-08-21T10:18:51;26.00;98.40
55211;DHT22;41082;52.822;6.666;2023-08-21T10:21:17;26.10;98.50
55211;DHT22;41082;52.822;6.666;2023-08-21T10:23:48;26.20;98.20
55211;DHT22;41082;52.822;6.666;2023-08-21T10:26:14;26.30;98.10
55211;DHT22;41082;52.822;6.666;2023-08-21T10:28:52;26.30;97.90
55211;DHT22;41082;52.822;6.666;2023-08-21T10:31:38;26.50;97.70
55211;DHT22;41082;52.822;6.666;2023-08-21T10:34:12;26.60;97.80
55211;DHT22;41082;52.822;6.666;2023-08-21T10:39:23;26.80;97.20
55211;DHT22;41082;52.822;6.666;2023-08-21T10:44:45;27.00;96.60
55211;DHT22;41082;52.822;6.666;2023-08-21T10:50:02;27.20;96.40
55211;DHT22;41082;52.822;6.666;2023-08-21T10:52:31;27.20;95.90
55211;DHT22;41082;52.822;6.666;2023-08-21T10:55:00;27.30;95.30
55211;DHT22;41082;52.822;6.666;2023-08-21T10:57:28;27.30;94.90
55211;DHT22;41082;52.822;6.666;2023-08-21T11:00:03;27.40;95.00
55211;DHT22;41082;52.822;6.666;2023-08-21T11:02:31;27.50;95.80
55211;DHT22;41082;52.822;6.666;2023-08-21T11:04:58;27.60;94.80
55211;DHT22;41082;52.822;6.666;2023-08-21T11:07:24;27.60;94.80
55211;DHT22;41082;52.822;6.666;2023-08-21T11:09:50;27.70;94.40
55211;DHT22;41082;52.822;6.666;2023-08-21T11:12:18;27.70;94.40
55211;DHT22;41082;52.822;6.666;2023-08-21T11:14:45;27.80;95.00
55211;DHT22;41082;52.822;6.666;2023-08-21T11:17:11;27.80;93.70
55211;DHT22;41082;52.822;6.666;2023-08-21T11:19:38;27.90;92.90
55211;DHT22;41082;52.822;6.666;2023-08-21T11:22:04;27.90;93.00
55211;DHT22;41082;52.822;6.666;2023-08-21T11:27:07;28.00;92.70
55211;DHT22;41082;52.822;6.666;2023-08-21T11:29:40;28.10;93.30
55211;DHT22;41082;52.822;6.666;2023-08-21T11:32:24;28.20;94.10
55211;DHT22;41082;52.822;6.666;2023-08-21T11:34:57;28.30;93.00
55211;DHT22;41082;52.822;6.666;2023-08-21T11:37:27;28.40;92.50
55211;DHT22;41082;52.822;6.666;2023-08-21T11:39:54;28.40;91.70
55211;DHT22;41082;52.822;6.666;2023-08-21T11:42:37;28.40;91.90
55211;DHT22;41082;52.822;6.666;2023-08-21T11:45:03;28.30;91.40
55211;DHT22;41082;52.822;6.666;2023-08-21T11:47:36;28.20;91.00
55211;DHT22;41082;52.822;6.666;2023-08-21T11:50:03;28.30;90.70
55211;DHT22;41082;52.822;6.666;2023-08-21T11:52:29;28.20;90.80
55211;DHT22;41082;52.822;6.666;2023-08-21T11:54:57;28.20;90.90
55211;DHT22;41082;52.822;6.666;2023-08-21T11:57:23;28.20;91.10
55211;DHT22;41082;52.822;6.666;2023-08-21T11:59:50;28.20;91.50
55211;DHT22;41082;52.822;6.666;2023-08-21T12:02:24;28.20;91.00
55211;DHT22;41082;52.822;6.666;2023-08-21T12:05:04;28.20;90.80
55211;DHT22;41082;52.822;6.666;2023-08-21T12:07:31;28.10;91.00
55211;DHT22;41082;52.822;6.666;2023-08-21T12:09:57;28.00;91.50
55211;DHT22;41082;52.822;6.666;2023-08-21T12:12:23;27.90;91.60
55211;DHT22;41082;52.822;6.666;2023-08-21T12:14:49;27.90;91.60
55211;DHT22;41082;52.822;6.666;2023-08-21T12:17:15;27.90;91.90
55211;DHT22;41082;52.822;6.666;2023-08-21T12:19:41;27.90;91.70
55211;DHT22;41082;52.822;6.666;2023-08-21T12:22:07;27.90;91.50
55211;DHT22;41082;52.822;6.666;2023-08-21T12:24:34;27.80;90.90
55211;DHT22;41082;52.822;6.666;2023-08-21T12:26:59;27.80;91.20
55211;DHT22;41082;52.822;6.666;2023-08-21T12:29:25;27.70;91.10
55211;DHT22;41082;52.822;6.666;2023-08-21T12:31:50;27.70;90.70
55211;DHT22;41082;52.822;6.666;2023-08-21T12:34:16;27.60;90.40
55211;DHT22;41082;52.822;6.666;2023-08-21T12:36:41;27.60;90.00
55211;DHT22;41082;52.822;6.666;2023-08-21T12:39:07;27.50;90.20
55211;DHT22;41082;52.822;6.666;2023-08-21T12:41:34;27.50;90.50
55211;DHT22;41082;52.822;6.666;2023-08-21T12:44:00;27.50;90.70
55211;DHT22;41082;52.822;6.666;2023-08-21T12:46:25;27.50;91.10
55211;DHT22;41082;52.822;6.666;2023-08-21T12:48:53;27.50;91.00
55211;DHT22;41082;52.822;6.666;2023-08-21T12:51:19;27.40;90.70
55211;DHT22;41082;52.822;6.666;2023-08-21T12:53:45;27.40;90.00
55211;DHT22;41082;52.822;6.666;2023-08-21T12:56:10;27.30;90.00
55211;DHT22;41082;52.822;6.666;2023-08-21T12:58:36;27.30;89.90
55211;DHT22;41082;52.822;6.666;2023-08-21T13:01:01;27.10;90.20
55211;DHT22;41082;52.822;6.666;2023-08-21T13:03:29;27.00;90.60
55211;DHT22;41082;52.822;6.666;2023-08-21T13:05:54;27.00;90.70
55211;DHT22;41082;52.822;6.666;2023-08-21T13:08:21;26.90;91.20
55211;DHT22;41082;52.822;6.666;2023-08-21T13:10:46;27.00;91.00
55211;DHT22;41082;52.822;6.666;2023-08-21T13:13:12;27.00;91.40
55211;DHT22;41082;52.822;6.666;2023-08-21T13:15:38;27.10;91.60
55211;DHT22;41082;52.822;6.666;2023-08-21T13:18:04;27.10;91.60
55211;DHT22;41082;52.822;6.666;2023-08-21T13:20:29;27.20;91.20
55211;DHT22;41082;52.822;6.666;2023-08-21T13:22:55;27.20;91.40
55211;DHT22;41082;52.822;6.666;2023-08-21T13:25:22;27.20;91.80
55211;DHT22;41082;52.822;6.666;2023-08-21T13:27:49;27.20;91.90
55211;DHT22;41082;52.822;6.666;2023-08-21T13:30:15;27.20;91.80
55211;DHT22;41082;52.822;6.666;2023-08-21T13:32:41;27.30;91.40
55211;DHT22;41082;52.822;6.666;2023-08-21T13:35:07;27.30;90.90
55211;DHT22;41082;52.822;6.666;2023-08-21T13:37:39;27.30;90.50
55211;DHT22;41082;52.822;6.666;2023-08-21T13:40:05;27.30;90.10
55211;DHT22;41082;52.822;6.666;2023-08-21T13:42:38;27.20;89.50
55211;DHT22;41082;52.822;6.666;2023-08-21T13:45:13;27.20;89.60
55211;DHT22;41082;52.822;6.666;2023-08-21T13:47:39;27.20;89.30
55211;DHT22;41082;52.822;6.666;2023-08-21T13:50:06;27.10;89.50
55211;DHT22;41082;52.822;6.666;2023-08-21T13:52:32;27.10;88.90
55211;DHT22;41082;52.822;6.666;2023-08-21T13:54:58;27.10;89.30
55211;DHT22;41082;52.822;6.666;2023-08-21T13:57:24;27.00;90.30
55211;DHT22;41082;52.822;6.666;2023-08-21T13:59:50;27.00;90.30
55211;DHT22;41082;52.822;6.666;2023-08-21T14:02:15;27.00;90.20
55211;DHT22;41082;52.822;6.666;2023-08-21T14:04:41;27.00;90.30
55211;DHT22;41082;52.822;6.666;2023-08-21T14:07:07;27.00;90.10
55211;DHT22;41082;52.822;6.666;2023-08-21T14:09:32;27.00;90.00
55211;DHT22;41082;52.822;6.666;2023-08-21T14:11:58;26.90;90.00
55211;DHT22;41082;52.822;6.666;2023-08-21T14:14:23;26.80;90.00
55211;DHT22;41082;52.822;6.666;2023-08-21T14:16:49;26.70;90.30
55211;DHT22;41082;52.822;6.666;2023-08-21T14:19:14;26.70;90.80
55211;DHT22;41082;52.822;6.666;2023-08-21T14:21:40;26.80;90.90
55211;DHT22;41082;52.822;6.666;2023-08-21T14:24:05;26.80;90.60
55211;DHT22;41082;52.822;6.666;2023-08-21T14:26:33;26.80;89.00
55211;DHT22;41082;52.822;6.666;2023-08-21T14:28:58;26.80;87.20
55211;DHT22;41082;52.822;6.666;2023-08-21T14:31:24;26.80;86.10
55211;DHT22;41082;52.822;6.666;2023-08-21T14:33:49;26.80;85.60
55211;DHT22;41082;52.822;6.666;2023-08-21T14:36:15;26.70;86.20
55211;DHT22;41082;52.822;6.666;2023-08-21T14:38:41;26.60;86.10
55211;DHT22;41082;52.822;6.666;2023-08-21T14:41:07;26.60;87.00
55211;DHT22;41082;52.822;6.666;2023-08-21T14:43:32;26.60;88.60
55211;DHT22;41082;52.822;6.666;2023-08-21T14:45:58;26.70;86.70
55211;DHT22;41082;52.822;6.666;2023-08-21T14:48:24;26.70;86.80
55211;DHT22;41082;52.822;6.666;2023-08-21T14:50:49;26.70;87.10
55211;DHT22;41082;52.822;6.666;2023-08-21T14:53:15;26.80;85.00
55211;DHT22;41082;52.822;6.666;2023-08-21T14:55:41;26.80;85.70
55211;DHT22;41082;52.822;6.666;2023-08-21T14:58:06;26.70;85.50
55211;DHT22;41082;52.822;6.666;2023-08-21T15:00:34;26.80;86.00
55211;DHT22;41082;52.822;6.666;2023-08-21T15:03:00;26.80;87.10
55211;DHT22;41082;52.822;6.666;2023-08-21T15:05:27;26.90;85.80
55211;DHT22;41082;52.822;6.666;2023-08-21T15:07:52;27.00;84.40
55211;DHT22;41082;52.822;6.666;2023-08-21T15:10:20;27.00;85.30
55211;DHT22;41082;52.822;6.666;2023-08-21T15:12:46;27.00;83.90
55211;DHT22;41082;52.822;6.666;2023-08-21T15:15:11;27.00;83.30
55211;DHT22;41082;52.822;6.666;2023-08-21T15:17:37;27.00;82.90
55211;DHT22;41082;52.822;6.666;2023-08-21T15:20:03;27.00;83.70
55211;DHT22;41082;52.822;6.666;2023-08-21T15:22:33;26.90;85.20
55211;DHT22;41082;52.822;6.666;2023-08-21T15:24:58;26.90;86.10
55211;DHT22;41082;52.822;6.666;2023-08-21T15:27:24;26.80;85.60
55211;DHT22;41082;52.822;6.666;2023-08-21T15:29:50;26.80;84.50
55211;DHT22;41082;52.822;6.666;2023-08-21T15:32:15;26.70;84.30
55211;DHT22;41082;52.822;6.666;2023-08-21T15:34:41;26.60;84.60
55211;DHT22;41082;52.822;6.666;2023-08-21T15:37:07;26.40;85.80
55211;DHT22;41082;52.822;6.666;2023-08-21T15:39:33;26.30;87.10
55211;DHT22;41082;52.822;6.666;2023-08-21T15:41:59;26.20;87.60
55211;DHT22;41082;52.822;6.666;2023-08-21T15:44:24;26.20;88.10